sensor_id;sensor_type;location;lat;lon;timestamp;temperature;humidity
23081;DHT22;72373;50.562;8.498;2024-03-02T00:00:09;3.10;99.90
23081;DHT22;72373;50.562;8.498;2024-03-02T00:02:43;3.00;99.90
23081;DHT22;72373;50.562;8.498;2024-03-02T00:05:14;2.90;99.90
23081;DHT22;72373;50.562;8.498;2024-03-02T00:07:43;2.90;99.90
23081;DHT22;72373;50.562;8.498;2024-03-02T00:10:12;2.90;99.90
23081;DHT22;72373;50.562;8.498;2024-03-02T00:12:39;3.20;99.90
23081;DHT22;72373;50.562;8.498;2024-03-02T00:15:39;2.90;99.90
23081;DHT22;72373;50.562;8.498;2024-03-02T00:18:06;2.90;99.90
23081;DHT22;72373;50.562;8.498;2024-03-02T00:20:32;2.80;99.90
23081;DHT22;72373;50.562;8.498;2024-03-02T00:23:03;2.80;99.90
23081;DHT22;72373;50.562;8.498;2024-03-02T00:25:40;2.70;99.90
23081;DHT22;72373;50.562;8.498;2024-03-02T00:28:18;2.70;99.90
23081;DHT22;72373;50.562;8.498;2024-03-02T00:30:57;2.80;99.90
23081;DHT22;72373;50.562;8.498;2024-03-02T00:33:23;2.80;99.90
23081;DHT22;72373;50.562;8.498;2024-03-02T00:35:51;2.80;99.90
23081;DHT22;72373;50.562;8.498;2024-03-02T00:38:17;2.80;99.90
23081;DHT22;72373;50.562;8.498;2024-03-02T00:40:43;2.80;99.90
23081;DHT22;72373;50.562;8.498;2024-03-02T00:45:54;2.80;99.90
23081;DHT22;72373;50.562;8.498;2024-03-02T00:48:20;2.80;99.90
23081;DHT22;72373;50.562;8.498;2024-03-02T00:50:46;2.80;99.90
23081;DHT22;72373;50.562;8.498;2024-03-02T00:53:25;2.90;99.90
23081;DHT22;72373;50.562;8.498;2024-03-02T00:55:52;2.90;99.90
23081;DHT22;72373;50.562;8.498;2024-03-02T00:58:17;2.90;99.90
23081;DHT22;72373;50.562;8.498;2024-03-02T01:00:43;3.00;99.90
23081;DHT22;72373;50.562;8.498;2024-03-02T01:03:08;3.00;99.90
23081;DHT22;72373;50.562;8.498;2024-03-02T01:05:36;3.00;99.90
23081;DHT22;72373;50.562;8.498;2024-03-02T01:08:01;3.10;99.90
23081;DHT22;72373;50.562;8.498;2024-03-02T01:10:27;3.10;99.90
23081;DHT22;72373;50.562;8.498;2024-03-02T01:12:52;3.00;99.90
23081;DHT22;72373;50.562;8.498;2024-03-02T01:15:18;3.00;99.90
23081;DHT22;72373;50.562;8.498;2024-03-02T01:17:43;2.90;99.90
23081;DHT22;72373;50.562;8.498;2024-03-02T01:20:09;2.90;99.90
23081;DHT22;72373;50.562;8.498;2024-03-02T01:22:35;2.70;99.90
23081;DHT22;72373;50.562;8.498;2024-03-02T01:25:01;2.90;99.90
23081;DHT22;72373;50.562;8.498;2024-03-02T01:27:27;2.80;99.90
23081;DHT22;72373;50.562;8.498;2024-03-02T01:29:52;2.70;99.90
23081;DHT22;72373;50.562;8.498;2024-03-02T01:32:18;2.70;99.90
23081;DHT22;72373;50.562;8.498;2024-03-02T01:34:43;2.70;99.90
23081;DHT22;72373;50.562;8.498;2024-03-02T01:37:09;2.70;99.90
23081;DHT22;72373;50.562;8.498;2024-03-02T01:39:35;2.70;99.90
23081;DHT22;72373;50.562;8.498;2024-03-02T01:42:01;2.70;99.90
23081;DHT22;72373;50.562;8.498;2024-03-02T01:44:27;2.80;99.90
23081;DHT22;72373;50.562;8.498;2024-03-02T01:46:52;2.80;99.90
23081;DHT22;72373;50.562;8.498;2024-03-02T01:49:18;2.80;99.90
23081;DHT22;72373;50.562;8.498;2024-03-02T01:51:44;2.80;99.90
23081;DHT22;72373;50.562;8.498;2024-03-02T01:54:10;2.70;99.90
23081;DHT22;72373;50.562;8.498;2024-03-02T01:56:36;2.70;99.90
23081;DHT22;72373;50.562;8.498;2024-03-02T01:59:02;2.70;99.90
23081;DHT22;72373;50.562;8.498;2024-03-02T02:01:27;2.60;99.90
23081;DHT22;72373;50.562;8.498;2024-03-02T02:03:53;2.60;99.90
23081;DHT22;72373;50.562;8.498;2024-03-02T02:06:18;2.60;99.90
23081;DHT22;72373;50.562;8.498;2024-03-02T02:08:44;2.70;99.90
23081;DHT22;72373;50.562;8.498;2024-03-02T02:11:10;2.70;99.90
23081;DHT22;72373;50.562;8.498;2024-03-02T02:13:36;2.70;99.90
23081;DHT22;72373;50.562;8.498;2024-03-02T02:16:08;2.80;99.90
23081;DHT22;72373;50.562;8.498;2024-03-02T02:18:34;2.80;99.90
23081;DHT22;72373;50.562;8.498;2024-03-02T02:21:00;2.90;99.90
23081;DHT22;72373;50.562;8.498;2024-03-02T02:23:26;2.90;99.90
23081;DHT22;72373;50.562;8.498;2024-03-02T02:25:51;2.90;99.90
23081;DHT22;72373;50.562;8.498;2024-03-02T02:28:17;2.90;99.90
23081;DHT22;72373;50.562;8.498;2024-03-02T02:30:42;3.00;99.90
23081;DHT22;72373;50.562;8.498;2024-03-02T02:33:08;3.00;99.90
23081;DHT22;72373;50.562;8.498;2024-03-02T02:35:34;2.90;99.90
23081;DHT22;72373;50.562;8.498;2024-03-02T02:38:00;2.90;99.90
23081;DHT22;72373;50.562;8.498;2024-03-02T02:40:26;3.00;99.90
23081;DHT22;72373;50.562;8.498;2024-03-02T02:42:52;3.00;99.90
23081;DHT22;72373;50.562;8.498;2024-03-02T02:45:18;3.00;99.90
23081;DHT22;72373;50.562;8.498;2024-03-02T02:47:44;3.00;99.90
23081;DHT22;72373;50.562;8.498;2024-03-02T02:50:11;3.00;99.90
23081;DHT22;72373;50.562;8.498;2024-03-02T02:52:38;3.20;99.90
23081;DHT22;72373;50.562;8.498;2024-03-02T02:55:06;3.00;99.90
23081;DHT22;72373;50.562;8.498;2024-03-02T02:57:33;3.00;99.90
23081;DHT22;72373;50.562;8.498;2024-03-02T03:00:13;2.90;99.90
23081;DHT22;72373;50.562;8.498;2024-03-02T03:02:46;2.60;99.90
23081;DHT22;72373;50.562;8.498;2024-03-02T03:05:13;2.80;99.90
23081;DHT22;72373;50.562;8.498;2024-03-02T03:07:40;2.70;99.90
23081;DHT22;72373;50.562;8.498;2024-03-02T03:10:06;2.70;99.90
23081;DHT22;72373;50.562;8.498;2024-03-02T03:12:33;2.30;99.90
23081;DHT22;72373;50.562;8.498;2024-03-02T03:14:59;2.50;99.90
23081;DHT22;72373;50.562;8.498;2024-03-02T03:17:25;2.40;99.90
23081;DHT22;72373;50.562;8.498;2024-03-02T03:19:51;2.40;99.90
23081;DHT22;72373;50.562;8.498;2024-03-02T03:22:16;2.40;99.90
23081;DHT22;72373;50.562;8.498;2024-03-02T03:24:42;2.40;99.90
23081;DHT22;72373;50.562;8.498;2024-03-02T03:27:08;2.30;99.90
23081;DHT22;72373;50.562;8.498;2024-03-02T03:29:36;2.20;99.90
23081;DHT22;72373;50.562;8.498;2024-03-02T03:32:02;2.20;99.90
23081;DHT22;72373;50.562;8.498;2024-03-02T03:34:27;2.10;99.90
23081;DHT22;72373;50.562;8.498;2024-03-02T03:36:54;2.00;99.90
23081;DHT22;72373;50.562;8.498;2024-03-02T03:39:20;1.80;99.90
23081;DHT22;72373;50.562;8.498;2024-03-02T03:41:45;1.90;99.90
23081;DHT22;72373;50.562;8.498;2024-03-02T03:44:11;1.80;99.90
23081;DHT22;72373;50.562;8.498;2024-03-02T03:49:02;1.70;99.90
23081;DHT22;72373;50.562;8.498;2024-03-02T03:51:29;1.70;99.90
23081;DHT22;72373;50.562;8.498;2024-03-02T03:53:55;1.70;99.90
23081;DHT22;72373;50.562;8.498;2024-03-02T03:56:21;1.80;99.90
23081;DHT22;72373;50.562;8.498;2024-03-02T03:58:46;1.70;99.90
23081;DHT22;72373;50.562;8.498;2024-03-02T04:01:12;1.70;99.90
23081;DHT22;72373;50.562;8.498;2024-03-02T04:03:38;1.60;99.90
23081;DHT22;72373;50.562;8.498;2024-03-02T04:06:04;1.60;99.90
23081;DHT22;72373;50.562;8.498;2024-03-02T04:08:29;1.60;99.90
23081;DHT22;72373;50.562;8.498;2024-03-02T04:10:55;1.60;99.90
23081;DHT22;72373;50.562;8.498;2024-03-02T04:13:20;1.50;99.90
23081;DHT22;72373;50.562;8.498;2024-03-02T04:15:46;1.60;99.90
23081;DHT22;72373;50.562;8.498;2024-03-02T04:18:11;1.60;99.90
23081;DHT22;72373;50.562;8.498;2024-03-02T04:20:37;1.60;99.90
23081;DHT22;72373;50.562;8.498;2024-03-02T04:23:02;1.50;99.90
23081;DHT22;72373;50.562;8.498;2024-03-02T04:25:28;1.50;99.90
23081;DHT22;72373;50.562;8.498;2024-03-02T04:27:54;1.50;99.90
23081;DHT22;72373;50.562;8.498;2024-03-02T04:30:19;1.40;99.90
23081;DHT22;72373;50.562;8.498;2024-03-02T04:32:45;1.50;99.90
23081;DHT22;72373;50.562;8.498;2024-03-02T04:35:12;1.40;99.90
23081;DHT22;72373;50.562;8.498;2024-03-02T04:37:38;1.40;99.90
23081;DHT22;72373;50.562;8.498;2024-03-02T04:40:04;1.30;99.90
23081;DHT22;72373;50.562;8.498;2024-03-02T04:42:33;1.50;99.90
23081;DHT22;72373;50.562;8.498;2024-03-02T04:44:59;1.30;99.90
23081;DHT22;72373;50.562;8.498;2024-03-02T04:47:25;1.40;99.90
23081;DHT22;72373;50.562;8.498;2024-03-02T04:49:50;1.40;99.90
23081;DHT22;72373;50.562;8.498;2024-03-02T04:52:16;1.40;99.90
23081;DHT22;72373;50.562;8.498;2024-03-02T04:54:42;1.30;99.90
23081;DHT22;72373;50.562;8.498;2024-03-02T04:57:26;1.30;99.90
23081;DHT22;72373;50.562;8.498;2024-03-02T04:59:52;1.30;99.90
23081;DHT22;72373;50.562;8.498;2024-03-02T05:02:17;1.40;99.90
23081;DHT22;72373;50.562;8.498;2024-03-02T05:04:43;1.40;99.90
23081;DHT22;72373;50.562;8.498;2024-03-02T05:07:08;1.40;99.90
23081;DHT22;72373;50.562;8.498;2024-03-02T05:09:34;1.40;99.90
23081;DHT22;72373;50.562;8.498;2024-03-02T05:11:59;1.40;99.90
23081;DHT22;72373;50.562;8.498;2024-03-02T05:15:04;1.40;99.90
23081;DHT22;72373;50.562;8.498;2024-03-02T05:17:29;1.30;99.90
23081;DHT22;72373;50.562;8.498;2024-03-02T05:19:55;1.30;99.90
23081;DHT22;72373;50.562;8.498;2024-03-02T05:22:20;1.30;99.90
23081;DHT22;72373;50.562;8.498;2024-03-02T05:24:46;0.90;99.90
23081;DHT22;72373;50.562;8.498;2024-03-02T05:27:11;1.10;99.90
23081;DHT22;72373;50.562;8.498;2024-03-02T05:29:37;1.10;99.90
23081;DHT22;72373;50.562;8.498;2024-03-02T05:32:03;1.10;99.90
23081;DHT22;72373;50.562;8.498;2024-03-02T05:34:28;1.10;99.90
23081;DHT22;72373;50.562;8.498;2024-03-02T05:36:54;1.10;99.90
23081;DHT22;72373;50.562;8.498;2024-03-02T05:39:20;1.00;99.90
23081;DHT22;72373;50.562;8.498;2024-03-02T05:41:45;1.00;99.90
23081;DHT22;72373;50.562;8.498;2024-03-02T05:44:11;0.90;99.90
23081;DHT22;72373;50.562;8.498;2024-03-02T05:46:37;0.90;99.90
23081;DHT22;72373;50.562;8.498;2024-03-02T05:49:03;0.90;99.90
23081;DHT22;72373;50.562;8.498;2024-03-02T05:51:29;0.80;99.90
23081;DHT22;72373;50.562;8.498;2024-03-02T05:53:54;0.80;99.90
23081;DHT22;72373;50.562;8.498;2024-03-02T05:56:20;0.80;99.90
23081;DHT22;72373;50.562;8.498;2024-03-02T05:58:45;0.80;99.90
23081;DHT22;72373;50.562;8.498;2024-03-02T06:01:32;0.80;99.90
23081;DHT22;72373;50.562;8.498;2024-03-02T06:03:58;0.80;99.90
23081;DHT22;72373;50.562;8.498;2024-03-02T06:06:24;0.80;99.90
23081;DHT22;72373;50.562;8.498;2024-03-02T06:08:50;0.80;99.90
23081;DHT22;72373;50.562;8.498;2024-03-02T06:11:16;0.80;99.90
23081;DHT22;72373;50.562;8.498;2024-03-02T06:13:42;0.80;99.90
23081;DHT22;72373;50.562;8.498;2024-03-02T06:16:07;0.70;99.90
23081;DHT22;72373;50.562;8.498;2024-03-02T06:18:34;0.80;99.90
23081;DHT22;72373;50.562;8.498;2024-03-02T06:20:59;0.90;99.90
23081;DHT22;72373;50.562;8.498;2024-03-02T06:23:26;0.90;99.90
23081;DHT22;72373;50.562;8.498;2024-03-02T06:25:52;1.00;99.90
23081;DHT22;72373;50.562;8.498;2024-03-02T06:28:18;1.00;99.90
23081;DHT22;72373;50.562;8.498;2024-03-02T06:30:43;1.00;99.90
23081;DHT22;72373;50.562;8.498;2024-03-02T06:33:10;1.00;99.90
23081;DHT22;72373;50.562;8.498;2024-03-02T06:35:36;1.10;99.90
23081;DHT22;72373;50.562;8.498;2024-03-02T06:38:01;1.10;99.90
23081;DHT22;72373;50.562;8.498;2024-03-02T06:40:27;1.20;99.90
23081;DHT22;72373;50.562;8.498;2024-03-02T06:42:52;1.30;99.90
23081;DHT22;72373;50.562;8.498;2024-03-02T06:45:18;1.40;99.90
23081;DHT22;72373;50.562;8.498;2024-03-02T06:47:44;1.50;99.90
23081;DHT22;72373;50.562;8.498;2024-03-02T06:50:09;1.60;99.90
23081;DHT22;72373;50.562;8.498;2024-03-02T06:52:35;1.50;99.90
23081;DHT22;72373;50.562;8.498;2024-03-02T06:55:01;1.70;99.90
23081;DHT22;72373;50.562;8.498;2024-03-02T06:57:27;1.70;99.90
23081;DHT22;72373;50.562;8.498;2024-03-02T06:59:52;1.80;99.90
23081;DHT22;72373;50.562;8.498;2024-03-02T07:02:20;1.80;99.90
23081;DHT22;72373;50.562;8.498;2024-03-02T07:04:46;1.90;99.90
23081;DHT22;72373;50.562;8.498;2024-03-02T07:07:12;2.00;99.90
23081;DHT22;72373;50.562;8.498;2024-03-02T07:09:38;2.10;99.90
23081;DHT22;72373;50.562;8.498;2024-03-02T07:12:04;2.10;99.90
23081;DHT22;72373;50.562;8.498;2024-03-02T07:14:29;2.20;99.90
23081;DHT22;72373;50.562;8.498;2024-03-02T07:17:13;2.20;99.90
23081;DHT22;72373;50.562;8.498;2024-03-02T07:19:39;2.30;99.90
23081;DHT22;72373;50.562;8.498;2024-03-02T07:22:08;2.30;99.90
23081;DHT22;72373;50.562;8.498;2024-03-02T07:24:42;2.40;99.90
23081;DHT22;72373;50.562;8.498;2024-03-02T07:27:12;2.50;99.90
23081;DHT22;72373;50.562;8.498;2024-03-02T07:29:38;2.60;99.90
23081;DHT22;72373;50.562;8.498;2024-03-02T07:32:05;2.70;99.90
23081;DHT22;72373;50.562;8.498;2024-03-02T07:34:30;2.80;99.90
23081;DHT22;72373;50.562;8.498;2024-03-02T07:36:56;3.10;99.90
23081;DHT22;72373;50.562;8.498;2024-03-02T07:39:22;3.30;99.90
23081;DHT22;72373;50.562;8.498;2024-03-02T07:41:47;3.40;99.90
23081;DHT22;72373;50.562;8.498;2024-03-02T07:44:13;3.50;99.90
23081;DHT22;72373;50.562;8.498;2024-03-02T07:46:44;3.80;99.90
23081;DHT22;72373;50.562;8.498;2024-03-02T07:49:09;3.90;99.90
23081;DHT22;72373;50.562;8.498;2024-03-02T07:51:35;4.00;99.90
23081;DHT22;72373;50.562;8.498;2024-03-02T07:54:01;4.10;99.90
23081;DHT22;72373;50.562;8.498;2024-03-02T07:56:27;4.20;99.90
23081;DHT22;72373;50.562;8.498;2024-03-02T07:58:53;4.30;99.90
23081;DHT22;72373;50.562;8.498;2024-03-02T08:01:19;4.40;99.90
23081;DHT22;72373;50.562;8.498;2024-03-02T08:03:45;4.40;99.90
23081;DHT22;72373;50.562;8.498;2024-03-02T08:06:14;4.60;99.90
23081;DHT22;72373;50.562;8.498;2024-03-02T08:08:40;4.60;99.90
23081;DHT22;72373;50.562;8.498;2024-03-02T08:11:06;4.80;99.90
23081;DHT22;72373;50.562;8.498;2024-03-02T08:13:31;4.90;99.90
23081;DHT22;72373;50.562;8.498;2024-03-02T08:15:57;5.00;99.90
23081;DHT22;72373;50.562;8.498;2024-03-02T08:18:23;5.10;99.90
23081;DHT22;72373;50.562;8.498;2024-03-02T08:20:48;5.20;99.90
23081;DHT22;72373;50.562;8.498;2024-03-02T08:23:14;5.20;99.90
23081;DHT22;72373;50.562;8.498;2024-03-02T08:25:39;5.30;99.90
23081;DHT22;72373;50.562;8.498;2024-03-02T08:28:05;5.40;99.90
23081;DHT22;72373;50.562;8.498;2024-03-02T08:30:31;5.40;99.90
23081;DHT22;72373;50.562;8.498;2024-03-02T08:32:57;5.50;99.90
23081;DHT22;72373;50.562;8.498;2024-03-02T08:35:22;5.50;99.90
23081;DHT22;72373;50.562;8.498;2024-03-02T08:37:48;5.60;99.90
23081;DHT22;72373;50.562;8.498;2024-03-02T08:40:14;5.70;99.90
23081;DHT22;72373;50.562;8.498;2024-03-02T08:42:40;6.40;99.90
23081;DHT22;72373;50.562;8.498;2024-03-02T08:45:07;6.10;99.90
23081;DHT22;72373;50.562;8.498;2024-03-02T08:47:33;6.40;99.90
23081;DHT22;72373;50.562;8.498;2024-03-02T08:49:59;6.40;99.90
23081;DHT22;72373;50.562;8.498;2024-03-02T08:52:25;6.50;99.90
23081;DHT22;72373;50.562;8.498;2024-03-02T08:54:51;6.60;99.90
23081;DHT22;72373;50.562;8.498;2024-03-02T08:57:16;6.60;99.90
23081;DHT22;72373;50.562;8.498;2024-03-02T08:59:42;6.70;99.90
23081;DHT22;72373;50.562;8.498;2024-03-02T09:02:07;6.90;99.90
23081;DHT22;72373;50.562;8.498;2024-03-02T09:04:33;7.10;99.90
23081;DHT22;72373;50.562;8.498;2024-03-02T09:06:58;7.20;99.90
23081;DHT22;72373;50.562;8.498;2024-03-02T09:09:24;7.30;99.90
23081;DHT22;72373;50.562;8.498;2024-03-02T09:11:50;7.50;99.90
23081;DHT22;72373;50.562;8.498;2024-03-02T09:14:15;7.50;99.90
23081;DHT22;72373;50.562;8.498;2024-03-02T09:16:41;7.50;99.90
23081;DHT22;72373;50.562;8.498;2024-03-02T09:19:07;7.60;99.90
23081;DHT22;72373;50.562;8.498;2024-03-02T09:21:32;7.60;99.90
23081;DHT22;72373;50.562;8.498;2024-03-02T09:23:58;7.80;99.90
23081;DHT22;72373;50.562;8.498;2024-03-02T09:26:24;7.90;99.90
23081;DHT22;72373;50.562;8.498;2024-03-02T09:28:50;8.10;99.90
23081;DHT22;72373;50.562;8.498;2024-03-02T09:31:16;8.20;99.90
23081;DHT22;72373;50.562;8.498;2024-03-02T09:33:41;8.30;99.90
23081;DHT22;72373;50.562;8.498;2024-03-02T09:36:20;8.50;99.90
23081;DHT22;72373;50.562;8.498;2024-03-02T09:38:46;8.60;99.90
23081;DHT22;72373;50.562;8.498;2024-03-02T09:41:12;8.90;99.90
23081;DHT22;72373;50.562;8.498;2024-03-02T09:43:38;9.20;99.90
23081;DHT22;72373;50.562;8.498;2024-03-02T09:46:04;9.60;99.90
23081;DHT22;72373;50.562;8.498;2024-03-02T09:48:29;10.00;99.90
23081;DHT22;72373;50.562;8.498;2024-03-02T09:50:55;10.20;99.90
23081;DHT22;72373;50.562;8.498;2024-03-02T09:53:22;10.30;99.90
23081;DHT22;72373;50.562;8.498;2024-03-02T09:55:48;10.50;99.90
23081;DHT22;72373;50.562;8.498;2024-03-02T09:58:14;10.60;99.90
23081;DHT22;72373;50.562;8.498;2024-03-02T10:00:39;10.80;99.90
23081;DHT22;72373;50.562;8.498;2024-03-02T10:03:05;11.10;99.90
23081;DHT22;72373;50.562;8.498;2024-03-02T10:05:30;11.60;99.90
23081;DHT22;72373;50.562;8.498;2024-03-02T10:08:00;12.00;99.90
23081;DHT22;72373;50.562;8.498;2024-03-02T10:10:37;12.70;99.90
23081;DHT22;72373;50.562;8.498;2024-03-02T10:13:09;13.80;99.90
23081;DHT22;72373;50.562;8.498;2024-03-02T10:15:35;15.00;99.90
23081;DHT22;72373;50.562;8.498;2024-03-02T10:18:06;15.50;99.90
23081;DHT22;72373;50.562;8.498;2024-03-02T10:20:33;16.30;99.90
23081;DHT22;72373;50.562;8.498;2024-03-02T10:23:14;17.30;99.90
23081;DHT22;72373;50.562;8.498;2024-03-02T10:25:40;17.60;99.90
23081;DHT22;72373;50.562;8.498;2024-03-02T10:28:06;17.50;99.90
23081;DHT22;72373;50.562;8.498;2024-03-02T10:30:32;17.70;99.90
23081;DHT22;72373;50.562;8.498;2024-03-02T10:32:58;18.00;99.90
23081;DHT22;72373;50.562;8.498;2024-03-02T10:35:25;18.60;99.90
23081;DHT22;72373;50.562;8.498;2024-03-02T10:37:52;18.60;99.90
23081;DHT22;72373;50.562;8.498;2024-03-02T10:40:21;18.10;99.90
23081;DHT22;72373;50.562;8.498;2024-03-02T10:42:47;18.00;99.90
23081;DHT22;72373;50.562;8.498;2024-03-02T10:45:15;17.20;99.90
23081;DHT22;72373;50.562;8.498;2024-03-02T10:47:42;16.40;99.90
23081;DHT22;72373;50.562;8.498;2024-03-02T10:50:08;15.60;99.90
23081;DHT22;72373;50.562;8.498;2024-03-02T10:52:38;16.30;99.90
23081;DHT22;72373;50.562;8.498;2024-03-02T10:55:05;16.70;99.90
23081;DHT22;72373;50.562;8.498;2024-03-02T10:57:50;16.70;99.90
23081;DHT22;72373;50.562;8.498;2024-03-02T11:00:18;16.30;99.90
23081;DHT22;72373;50.562;8.498;2024-03-02T11:02:51;17.00;99.90
23081;DHT22;72373;50.562;8.498;2024-03-02T11:05:31;17.10;99.90
23081;DHT22;72373;50.562;8.498;2024-03-02T11:08:00;17.50;99.90
23081;DHT22;72373;50.562;8.498;2024-03-02T11:10:34;16.40;99.90
23081;DHT22;72373;50.562;8.498;2024-03-02T11:13:05;16.10;99.90
23081;DHT22;72373;50.562;8.498;2024-03-02T11:15:34;15.90;99.90
23081;DHT22;72373;50.562;8.498;2024-03-02T11:18:05;15.80;99.90
23081;DHT22;72373;50.562;8.498;2024-03-02T11:20:37;15.60;99.90
23081;DHT22;72373;50.562;8.498;2024-03-02T11:23:08;15.60;99.90
23081;DHT22;72373;50.562;8.498;2024-03-02T11:25:34;16.10;99.90
23081;DHT22;72373;50.562;8.498;2024-03-02T11:28:01;16.90;99.90
23081;DHT22;72373;50.562;8.498;2024-03-02T11:33:03;17.70;99.90
23081;DHT22;72373;50.562;8.498;2024-03-02T11:35:42;17.80;99.90
23081;DHT22;72373;50.562;8.498;2024-03-02T11:38:09;17.70;99.90
23081;DHT22;72373;50.562;8.498;2024-03-02T11:40:35;17.50;99.90
23081;DHT22;72373;50.562;8.498;2024-03-02T11:43:01;17.00;99.90
23081;DHT22;72373;50.562;8.498;2024-03-02T11:45:27;16.50;99.90
23081;DHT22;72373;50.562;8.498;2024-03-02T11:47:57;16.00;99.90
23081;DHT22;72373;50.562;8.498;2024-03-02T11:50:30;15.60;99.90
23081;DHT22;72373;50.562;8.498;2024-03-02T11:53:00;15.40;99.90
23081;DHT22;72373;50.562;8.498;2024-03-02T11:55:26;15.40;99.90
23081;DHT22;72373;50.562;8.498;2024-03-02T11:57:54;15.40;99.90
23081;DHT22;72373;50.562;8.498;2024-03-02T12:00:20;15.40;99.90
23081;DHT22;72373;50.562;8.498;2024-03-02T12:02:48;15.60;99.90
23081;DHT22;72373;50.562;8.498;2024-03-02T12:05:24;15.60;99.90
23081;DHT22;72373;50.562;8.498;2024-03-02T12:07:58;15.50;99.90
23081;DHT22;72373;50.562;8.498;2024-03-02T12:10:24;15.50;99.90
23081;DHT22;72373;50.562;8.498;2024-03-02T12:13:00;15.60;99.90
23081;DHT22;72373;50.562;8.498;2024-03-02T12:15:28;15.60;99.90
23081;DHT22;72373;50.562;8.498;2024-03-02T12:17:58;15.80;99.90
23081;DHT22;72373;50.562;8.498;2024-03-02T12:20:26;16.30;99.90
23081;DHT22;72373;50.562;8.498;2024-03-02T12:22:53;16.70;99.90
23081;DHT22;72373;50.562;8.498;2024-03-02T12:25:23;16.80;99.90
23081;DHT22;72373;50.562;8.498;2024-03-02T12:27:50;16.70;99.90
23081;DHT22;72373;50.562;8.498;2024-03-02T12:30:17;16.40;99.90
23081;DHT22;72373;50.562;8.498;2024-03-02T12:32:44;16.40;99.90
23081;DHT22;72373;50.562;8.498;2024-03-02T12:35:11;16.30;99.90
23081;DHT22;72373;50.562;8.498;2024-03-02T12:37:48;16.30;99.90
23081;DHT22;72373;50.562;8.498;2024-03-02T12:40:19;16.40;99.90
23081;DHT22;72373;50.562;8.498;2024-03-02T12:42:46;15.70;99.90
23081;DHT22;72373;50.562;8.498;2024-03-02T12:45:15;16.00;99.90
23081;DHT22;72373;50.562;8.498;2024-03-02T12:47:41;15.70;99.90
23081;DHT22;72373;50.562;8.498;2024-03-02T12:50:08;15.50;99.90
23081;DHT22;72373;50.562;8.498;2024-03-02T12:52:34;15.20;99.90
23081;DHT22;72373;50.562;8.498;2024-03-02T12:55:00;15.20;99.90
23081;DHT22;72373;50.562;8.498;2024-03-02T12:57:28;15.20;99.90
23081;DHT22;72373;50.562;8.498;2024-03-02T13:00:05;15.10;99.90
23081;DHT22;72373;50.562;8.498;2024-03-02T13:02:40;14.90;99.90
23081;DHT22;72373;50.562;8.498;2024-03-02T13:05:07;15.00;99.90
23081;DHT22;72373;50.562;8.498;2024-03-02T13:07:36;15.10;99.90
23081;DHT22;72373;50.562;8.498;2024-03-02T13:10:02;15.10;99.90
23081;DHT22;72373;50.562;8.498;2024-03-02T13:12:30;15.00;99.90
23081;DHT22;72373;50.562;8.498;2024-03-02T13:14:58;15.00;99.90
23081;DHT22;72373;50.562;8.498;2024-03-02T13:17:28;15.00;99.90
23081;DHT22;72373;50.562;8.498;2024-03-02T13:19:55;14.80;99.90
23081;DHT22;72373;50.562;8.498;2024-03-02T13:22:21;14.70;99.90
23081;DHT22;72373;50.562;8.498;2024-03-02T13:24:47;14.60;99.90
23081;DHT22;72373;50.562;8.498;2024-03-02T13:27:13;14.60;99.90
23081;DHT22;72373;50.562;8.498;2024-03-02T13:29:38;14.50;99.90
23081;DHT22;72373;50.562;8.498;2024-03-02T13:32:04;14.40;99.90
23081;DHT22;72373;50.562;8.498;2024-03-02T13:34:30;14.30;99.90
23081;DHT22;72373;50.562;8.498;2024-03-02T13:36:56;14.10;99.90
23081;DHT22;72373;50.562;8.498;2024-03-02T13:39:21;13.90;99.90
23081;DHT22;72373;50.562;8.498;2024-03-02T13:41:47;13.90;99.90
23081;DHT22;72373;50.562;8.498;2024-03-02T13:44:19;13.90;99.90
23081;DHT22;72373;50.562;8.498;2024-03-02T13:46:44;13.80;99.90
23081;DHT22;72373;50.562;8.498;2024-03-02T13:49:11;13.80;99.90
23081;DHT22;72373;50.562;8.498;2024-03-02T13:51:37;13.80;99.90
23081;DHT22;72373;50.562;8.498;2024-03-02T13:54:02;13.70;99.90
23081;DHT22;72373;50.562;8.498;2024-03-02T13:56:29;13.70;99.90
23081;DHT22;72373;50.562;8.498;2024-03-02T13:58:55;13.70;99.90
23081;DHT22;72373;50.562;8.498;2024-03-02T14:01:20;13.70;99.90
23081;DHT22;72373;50.562;8.498;2024-03-02T14:03:46;13.60;99.90
23081;DHT22;72373;50.562;8.498;2024-03-02T14:06:12;13.50;99.90
23081;DHT22;72373;50.562;8.498;2024-03-02T14:08:37;13.40;99.90
23081;DHT22;72373;50.562;8.498;2024-03-02T14:11:03;13.30;99.90
23081;DHT22;72373;50.562;8.498;2024-03-02T14:13:29;13.30;99.90
23081;DHT22;72373;50.562;8.498;2024-03-02T14:15:54;13.20;99.90
23081;DHT22;72373;50.562;8.498;2024-03-02T14:18:20;13.10;99.90
23081;DHT22;72373;50.562;8.498;2024-03-02T14:20:46;13.10;99.90
23081;DHT22;72373;50.562;8.498;2024-03-02T14:23:17;13.10;99.90
23081;DHT22;72373;50.562;8.498;2024-03-02T14:25:43;13.10;99.90
23081;DHT22;72373;50.562;8.498;2024-03-02T14:28:08;13.10;99.90
23081;DHT22;72373;50.562;8.498;2024-03-02T14:30:34;13.10;99.90
23081;DHT22;72373;50.562;8.498;2024-03-02T14:32:59;13.20;99.90
23081;DHT22;72373;50.562;8.498;2024-03-02T14:35:25;13.20;99.90
23081;DHT22;72373;50.562;8.498;2024-03-02T14:37:51;13.20;99.90
23081;DHT22;72373;50.562;8.498;2024-03-02T14:40:18;13.20;99.90
23081;DHT22;72373;50.562;8.498;2024-03-02T14:42:43;13.40;99.90
23081;DHT22;72373;50.562;8.498;2024-03-02T14:45:12;13.10;99.90
23081;DHT22;72373;50.562;8.498;2024-03-02T14:47:38;13.20;99.90
23081;DHT22;72373;50.562;8.498;2024-03-02T14:50:04;13.20;99.90
23081;DHT22;72373;50.562;8.498;2024-03-02T14:52:34;13.30;99.90
23081;DHT22;72373;50.562;8.498;2024-03-02T14:54:59;13.20;99.90
23081;DHT22;72373;50.562;8.498;2024-03-02T14:57:25;13.30;99.90
23081;DHT22;72373;50.562;8.498;2024-03-02T14:59:50;13.30;99.90
23081;DHT22;72373;50.562;8.498;2024-03-02T15:02:16;13.30;99.90
23081;DHT22;72373;50.562;8.498;2024-03-02T15:04:42;13.30;99.90
23081;DHT22;72373;50.562;8.498;2024-03-02T15:07:10;13.40;99.90
23081;DHT22;72373;50.562;8.498;2024-03-02T15:09:35;13.40;99.90
23081;DHT22;72373;50.562;8.498;2024-03-02T15:12:02;13.40;99.90
23081;DHT22;72373;50.562;8.498;2024-03-02T15:14:28;13.40;99.90
23081;DHT22;72373;50.562;8.498;2024-03-02T15:16:54;13.40;99.90
23081;DHT22;72373;50.562;8.498;2024-03-02T15:19:21;13.40;99.90
23081;DHT22;72373;50.562;8.498;2024-03-02T15:21:47;13.50;99.90
23081;DHT22;72373;50.562;8.498;2024-03-02T15:24:12;13.40;99.90
23081;DHT22;72373;50.562;8.498;2024-03-02T15:26:38;13.50;99.90
23081;DHT22;72373;50.562;8.498;2024-03-02T15:29:03;13.40;99.90
23081;DHT22;72373;50.562;8.498;2024-03-02T15:31:29;13.40;99.90
23081;DHT22;72373;50.562;8.498;2024-03-02T15:33:54;13.40;99.90
23081;DHT22;72373;50.562;8.498;2024-03-02T15:36:22;13.30;99.90
23081;DHT22;72373;50.562;8.498;2024-03-02T15:38:48;13.30;99.90
23081;DHT22;72373;50.562;8.498;2024-03-02T15:41:13;13.30;99.90
23081;DHT22;72373;50.562;8.498;2024-03-02T15:43:39;13.20;99.90
23081;DHT22;72373;50.562;8.498;2024-03-02T15:46:06;13.30;99.90